GW2834 Weather Reports


Display with metric or nautical units.
time (UTC)temp
F
wind
direction
speed
MPH
gust
MPH
rain 1hr
in
rain 24hr
in
rain mn
in
humidity
%
barometer
mb
20240518071453 67 175 2.0 9.0 0.00 0.45 0.00 96 1011.7
20240518070013 67 170 1.0 4.0 0.00 0.45 0.00 96 1011.7
20240518065450 67 149 1.0 7.0 0.00 0.45 0.00 96 1011.6
20240518064015 67 162 2.0 10.0 0.00 0.45 0.00 96 1011.8
20240518063013 67 111 1.0 6.0 0.00 0.45 0.00 96 1011.7
20240518062004 67 182 2.0 9.0 0.00 0.45 0.00 96 1012.0
20240518061003 67 115 2.0 9.0 0.00 0.45 0.00 96 1012.0
20240518060440 67 111 2.0 8.0 0.00 0.45 0.00 95 1012.2
20240518055003 67 241 2.0 10.0 0.00 0.45 0.00 96 1012.5
20240518054434 67 164 2.0 8.0 0.00 0.45 0.00 96 1012.6
20240518053001 67 148 3.0 10.0 0.00 0.45 0.00 96 1012.5
20240518052443 67 138 2.0 8.0 0.00 0.45 0.00 96 1012.6
20240518051002 67 142 4.0 13.0 0.00 0.45 0.00 96 1012.7
20240518050003 68 151 3.0 12.0 0.00 0.45 0.00 96 1012.8
20240518045001 68 109 3.0 10.0 0.00 0.45 0.00 96 1012.8
20240518044001 68 171 3.0 12.0 0.00 0.45 0.00 96 1012.9
20240518043001 68 199 2.0 10.0 0.00 0.45 0.00 96 1013.0
20240518042001 68 198 2.0 11.0 0.00 0.45 0.00 96 1013.0
20240518041001 69 131 3.0 11.0 0.00 0.45 0.00 96 1012.8
20240518035959 69 120 2.0 10.0 0.00 0.45 0.45 96 1013.0
20240518035002 69 115 2.0 11.0 0.00 0.45 0.45 96 1013.2
20240518034001 69 159 3.0 8.0 0.00 0.45 0.45 96 1013.2
20240518032959 69 152 3.0 9.0 0.00 0.45 0.45 96 1013.5
20240518032001 69 136 3.0 10.0 0.00 0.45 0.45 96 1013.2
20240518031449 69 133 3.0 11.0 0.00 0.45 0.45 96 1013.3
20240518030432 69 152 3.0 10.0 0.00 0.45 0.45 96 1013.4
20240518025000 69 176 2.0 8.0 0.00 0.45 0.45 96 1013.2
20240518024001 69 142 2.0 9.0 0.00 0.45 0.45 96 1013.2
20240518022959 69 129 2.0 8.0 0.00 0.45 0.45 96 1013.2
20240518021959 69 135 1.0 5.0 0.00 0.45 0.45 96 1013.3
20240518020959 69 175 2.0 7.0 0.00 0.45 0.45 95 1013.2
20240518015958 69 170 1.0 5.0 0.00 0.45 0.45 95 1013.2
20240518014957 69 163 1.0 3.0 0.00 0.45 0.45 95 1013.2
20240518013956 69 187 1.0 5.0 0.00 0.45 0.45 95 1012.8
20240518012955 69 118 1.0 4.0 0.02 0.45 0.45 94 1012.8
20240518011956 69 32 1.0 3.0 0.05 0.45 0.45 94 1012.8
20240518010957 69 129 2.0 6.0 0.05 0.45 0.45 94 1012.8
20240518005956 70 23 2.0 6.0 0.05 0.45 0.45 94 1012.7
20240518004957 70 165 2.0 6.0 0.05 0.45 0.45 94 1012.9
20240518003953 70 206 2.0 7.0 0.05 0.45 0.45 93 1012.9
20240518003434 70 169 1.0 11.0 0.08 0.43 0.44 93 1012.9
20240518001953 71 131 0.0 1.0 0.24 0.40 0.41 92 1012.8
20240518000955 71 131 1.0 4.0 0.40 0.40 0.40 92 1012.6
20240517235954 71 174 1.0 3.0 0.40 0.40 0.40 91 1012.7
20240517235431 72 133 1.0 2.0 0.40 0.40 0.40 90 1012.6
20240517233953 72 167 1.0 4.0 0.40 0.40 0.40 89 1012.7
20240517232954 73 161 1.0 5.0 0.35 0.35 0.35 88 1012.9
20240517231952 74 175 1.0 4.0 0.16 0.16 0.16 87 1013.0
20240517230950 74 173 0.0 2.0 0.00 0.00 0.00 84 1012.7
20240517225950 75 158 0.0 2.0 0.00 0.00 0.00 84 1012.7
20240517224950 75 136 0.0 3.0 0.00 0.00 0.00 83 1012.5
20240517223949 76 166 1.0 2.0 0.00 0.00 0.00 82 1012.5
20240517222949 76 165 1.0 4.0 0.00 0.00 0.00 80 1012.4
20240517221950 76 152 2.0 6.0 0.00 0.00 0.00 79 1012.4
20240517220949 76 200 1.0 5.0 0.00 0.00 0.00 78 1012.3
20240517215949 77 182 1.0 4.0 0.00 0.00 0.00 78 1012.4
20240517214947 77 172 2.0 9.0 0.00 0.00 0.00 77 1012.2
20240517213947 77 217 1.0 4.0 0.00 0.00 0.00 77 1012.2
20240517212947 77 71 1.0 7.0 0.00 0.00 0.00 76 1012.2
20240517211947 77 165 2.0 6.0 0.00 0.00 0.00 76 1012.3
20240517210947 78 175 2.0 9.0 0.00 0.00 0.00 75 1012.6
20240517205946 78 172 2.0 9.0 0.00 0.00 0.00 75 1012.6
20240517204946 78 142 2.0 9.0 0.00 0.00 0.00 76 1012.5
20240517203946 78 163 1.0 6.0 0.00 0.00 0.00 76 1012.5
20240517202946 78 162 2.0 7.0 0.00 0.00 0.00 75 1012.6
20240517201945 79 163 2.0 7.0 0.00 0.00 0.00 74 1012.6
20240517200945 79 101 1.0 5.0 0.00 0.00 0.00 74 1012.5
20240517195946 79 144 2.0 6.0 0.00 0.00 0.00 75 1012.6
20240517194942 79 125 2.0 5.0 0.00 0.00 0.00 73 1012.9
20240517193943 79 295 2.0 9.0 0.00 0.00 0.00 74 1013.0
20240517192941 79 182 2.0 9.0 0.00 0.00 0.00 77 1012.9
20240517191941 78 124 1.0 5.0 0.00 0.00 0.00 76 1013.2
20240517191430 78 168 1.0 4.0 0.00 0.00 0.00 76 1013.3
20240517185941 78 133 2.0 6.0 0.00 0.00 0.00 76 1013.4
20240517185420 78 177 3.0 10.0 0.00 0.00 0.00 76 1013.4
20240517183939 78 196 2.0 9.0 0.00 0.00 0.00 76 1013.6
20240517182939 77 178 3.0 8.0 0.00 0.00 0.00 76 1013.8
20240517181940 77 137 1.0 5.0 0.00 0.00 0.00 77 1013.9
20240517180940 77 155 1.0 5.0 0.00 0.00 0.00 76 1013.9
20240517175943 76 192 2.0 7.0 0.00 0.00 0.00 77 1014.0
20240517175432 76 140 1.0 3.0 0.00 0.00 0.00 78 1014.0
20240517174424 76 173 0.0 3.0 0.00 0.00 0.00 77 1014.2
20240517172938 76 198 1.0 3.0 0.00 0.00 0.00 77 1014.4
20240517171938 76 115 0.0 2.0 0.00 0.00 0.00 77 1014.5
20240517171616 76 50 1.0 2.0 0.00 0.00 0.00 76 1014.5
20240517171423 76 82 0.0 2.0 0.00 0.00 0.00 76 1014.3
20240517165427 76 91 1.0 3.0 0.00 0.00 0.00 77 1014.3
20240517164414 76 149 1.0 7.0 0.00 0.00 0.00 76 1014.4
20240517162939 75 121 1.0 5.0 0.00 0.00 0.00 77 1014.5
20240517161936 75 134 0.0 3.0 0.00 0.00 0.00 77 1014.5
20240517160937 75 135 1.0 4.0 0.00 0.00 0.00 76 1014.7
20240517160413 75 133 1.0 3.0 0.00 0.00 0.00 76 1014.5
20240517154937 75 146 1.0 3.0 0.00 0.00 0.00 76 1014.3
20240517154354 75 163 1.0 5.0 0.00 0.00 0.00 75 1014.2
20240517154132 75 192 1.0 5.0 0.00 0.00 0.00 76 1014.3
20240517151937 75 182 1.0 5.0 0.00 0.00 0.00 74 1014.2
20240517151409 75 164 1.0 4.0 0.00 0.00 0.00 74 1014.2
20240517145934 75 120 2.0 6.0 0.00 0.00 0.00 74 1013.9
20240517144934 76 142 1.0 4.0 0.00 0.00 0.00 75 1013.9
20240517144418 75 99 1.0 5.0 0.00 0.00 0.00 76 1014.0
20240517142934 75 146 1.0 3.0 0.00 0.00 0.00 77 1014.0
20240517141934 75 178 2.0 8.0 0.00 0.00 0.00 77 1013.9
20240517140934 74 162 2.0 9.0 0.00 0.00 0.00 76 1013.8
20240517135929 75 217 2.0 8.0 0.00 0.00 0.00 75 1013.7
20240517134927 74 166 2.0 6.0 0.00 0.00 0.00 76 1013.7
20240517133932 73 157 3.0 9.0 0.00 0.00 0.00 75 1013.8
20240517132928 73 201 3.0 9.0 0.00 0.00 0.00 77 1013.8
20240517132412 73 177 2.0 6.0 0.00 0.00 0.00 78 1013.9
20240517130929 71 166 2.0 8.0 0.00 0.00 0.00 81 1014.0
20240517125929 71 161 2.0 10.0 0.00 0.00 0.00 82 1014.1
20240517125405 71 158 2.0 8.0 0.00 0.00 0.00 84 1014.0
20240517123927 71 187 1.0 4.0 0.00 0.00 0.00 86 1013.6
20240517122926 70 168 2.0 8.0 0.00 0.00 0.00 86 1013.5
20240517122418 69 142 2.0 8.0 0.00 0.00 0.00 89 1013.3
20240517120927 69 169 1.0 3.0 0.00 0.00 0.00 92 1013.3
20240517115925 68 182 2.0 6.0 0.00 0.00 0.00 93 1013.3
20240517114925 67 167 1.0 4.0 0.00 0.00 0.00 95 1013.1
20240517113925 66 169 1.0 4.0 0.00 0.00 0.00 95 1013.1
20240517112924 66 182 1.0 3.0 0.00 0.00 0.00 95 1013.0
20240517111924 65 146 0.0 3.0 0.00 0.00 0.00 95 1012.7
20240517111414 65 147 0.0 2.0 0.00 0.00 0.00 95 1012.6
20240517105924 65 148 0.0 3.0 0.00 0.00 0.00 94 1012.3
20240517104923 65 146 0.0 2.0 0.00 0.00 0.00 94 1012.2
20240517103925 65 146 0.0 1.0 0.00 0.00 0.00 93 1012.1
20240517102924 65 146 0.0 0.0 0.00 0.00 0.00 93 1011.9
20240517102415 65 146 0.0 2.0 0.00 0.00 0.00 93 1011.7
20240517100923 65 146 0.0 2.0 0.00 0.00 0.00 93 1011.7
20240517095923 65 145 0.0 2.0 0.00 0.00 0.00 92 1011.7
20240517095406 66 125 0.0 0.0 0.00 0.00 0.00 92 1011.6
20240517093921 66 125 0.0 0.0 0.00 0.00 0.00 92 1011.5
20240517092919 66 125 0.0 0.0 0.00 0.00 0.00 91 1011.5
20240517091919 67 125 0.0 0.0 0.00 0.00 0.00 90 1011.3
20240517090909 67 125 0.0 0.0 0.00 0.00 0.00 90 1011.4
20240517085910 67 125 0.0 0.0 0.00 0.00 0.00 90 1011.3
20240517084913 67 125 0.0 0.0 0.00 0.00 0.00 90 1011.3
20240517083910 67 125 0.0 3.0 0.00 0.00 0.00 90 1011.2
20240517082909 68 125 0.0 3.0 0.00 0.00 0.00 90 1011.2
20240517081909 68 119 0.0 3.0 0.00 0.00 0.00 90 1011.2
20240517080910 68 75 0.0 1.0 0.00 0.00 0.00 90 1011.2
20240517075908 68 75 0.0 1.0 0.00 0.00 0.00 91 1011.1
20240517074908 68 75 0.0 0.0 0.00 0.00 0.00 91 1011.2
20240517074347 68 75 0.0 1.0 0.00 0.00 0.00 91 1011.2
20240517072907 68 75 0.0 0.0 0.00 0.00 0.00 91 1011.4